sensor_id;sensor_type;location;lat;lon;timestamp;P1;durP1;ratioP1;P2;durP2;ratioP2
64667;SDS011;51077;42.716;23.344;2023-02-21T00:01:40;9.57;;;5.30;;
64667;SDS011;51077;42.716;23.344;2023-02-21T00:04:24;10.35;;;5.63;;
64667;SDS011;51077;42.716;23.344;2023-02-21T00:07:08;10.00;;;4.82;;
64667;SDS011;51077;42.716;23.344;2023-02-21T00:09:52;10.18;;;5.50;;
64667;SDS011;51077;42.716;23.344;2023-02-21T00:12:36;9.55;;;5.15;;
64667;SDS011;51077;42.716;23.344;2023-02-21T00:15:20;9.85;;;4.90;;
64667;SDS011;51077;42.716;23.344;2023-02-21T00:18:04;9.82;;;5.35;;
64667;SDS011;51077;42.716;23.344;2023-02-21T00:20:47;10.27;;;5.43;;
64667;SDS011;51077;42.716;23.344;2023-02-21T00:23:32;9.25;;;5.10;;
64667;SDS011;51077;42.716;23.344;2023-02-21T00:26:20;8.85;;;4.47;;
64667;SDS011;51077;42.716;23.344;2023-02-21T00:29:05;7.18;;;4.00;;
64667;SDS011;51077;42.716;23.344;2023-02-21T00:31:49;9.00;;;4.45;;
64667;SDS011;51077;42.716;23.344;2023-02-21T00:34:33;7.53;;;4.15;;
64667;SDS011;51077;42.716;23.344;2023-02-21T00:37:17;7.93;;;3.80;;
64667;SDS011;51077;42.716;23.344;2023-02-21T00:40:01;7.78;;;3.58;;
64667;SDS011;51077;42.716;23.344;2023-02-21T00:42:46;8.40;;;3.85;;
64667;SDS011;51077;42.716;23.344;2023-02-21T00:45:30;7.32;;;3.50;;
64667;SDS011;51077;42.716;23.344;2023-02-21T00:48:20;6.80;;;3.90;;
64667;SDS011;51077;42.716;23.344;2023-02-21T00:51:05;6.60;;;3.45;;
64667;SDS011;51077;42.716;23.344;2023-02-21T00:53:49;6.38;;;3.40;;
64667;SDS011;51077;42.716;23.344;2023-02-21T00:56:33;5.78;;;3.15;;
64667;SDS011;51077;42.716;23.344;2023-02-21T00:59:17;6.55;;;3.65;;
64667;SDS011;51077;42.716;23.344;2023-02-21T01:02:01;8.68;;;3.92;;
64667;SDS011;51077;42.716;23.344;2023-02-21T01:04:45;6.90;;;3.67;;
64667;SDS011;51077;42.716;23.344;2023-02-21T01:07:29;6.97;;;3.28;;
64667;SDS011;51077;42.716;23.344;2023-02-21T01:10:13;7.15;;;3.55;;
64667;SDS011;51077;42.716;23.344;2023-02-21T01:12:57;6.00;;;3.45;;
64667;SDS011;51077;42.716;23.344;2023-02-21T01:15:41;7.07;;;3.03;;
64667;SDS011;51077;42.716;23.344;2023-02-21T01:18:25;5.80;;;2.75;;
64667;SDS011;51077;42.716;23.344;2023-02-21T01:21:13;6.55;;;3.67;;
64667;SDS011;51077;42.716;23.344;2023-02-21T01:23:58;5.75;;;3.10;;
64667;SDS011;51077;42.716;23.344;2023-02-21T01:26:42;6.60;;;3.03;;
64667;SDS011;51077;42.716;23.344;2023-02-21T01:29:26;6.00;;;3.10;;
64667;SDS011;51077;42.716;23.344;2023-02-21T01:32:10;6.88;;;3.35;;
64667;SDS011;51077;42.716;23.344;2023-02-21T01:34:54;6.57;;;3.20;;
64667;SDS011;51077;42.716;23.344;2023-02-21T01:37:39;6.25;;;3.03;;
64667;SDS011;51077;42.716;23.344;2023-02-21T01:40:23;5.18;;;2.78;;
64667;SDS011;51077;42.716;23.344;2023-02-21T01:43:18;6.72;;;3.65;;
64667;SDS011;51077;42.716;23.344;2023-02-21T01:46:04;5.75;;;3.15;;
64667;SDS011;51077;42.716;23.344;2023-02-21T01:48:48;9.63;;;3.60;;
64667;SDS011;51077;42.716;23.344;2023-02-21T01:51:37;7.07;;;2.95;;
64667;SDS011;51077;42.716;23.344;2023-02-21T01:54:24;6.88;;;3.45;;
64667;SDS011;51077;42.716;23.344;2023-02-21T01:57:11;7.70;;;3.53;;
64667;SDS011;51077;42.716;23.344;2023-02-21T01:59:57;7.93;;;3.72;;
64667;SDS011;51077;42.716;23.344;2023-02-21T02:05:49;9.27;;;3.80;;
64667;SDS011;51077;42.716;23.344;2023-02-21T02:08:37;7.55;;;4.22;;
64667;SDS011;51077;42.716;23.344;2023-02-21T02:20:17;9.18;;;4.50;;
64667;SDS011;51077;42.716;23.344;2023-02-21T02:23:01;9.77;;;4.00;;
64667;SDS011;51077;42.716;23.344;2023-02-21T02:36:45;7.07;;;3.90;;
64667;SDS011;51077;42.716;23.344;2023-02-21T02:39:23;8.73;;;3.80;;
64667;SDS011;51077;42.716;23.344;2023-02-21T02:42:08;10.73;;;4.18;;
64667;SDS011;51077;42.716;23.344;2023-02-21T02:44:37;10.50;;;4.00;;
64667;SDS011;51077;42.716;23.344;2023-02-21T02:47:06;10.70;;;4.22;;
64667;SDS011;51077;42.716;23.344;2023-02-21T02:49:38;6.85;;;3.92;;
64667;SDS011;51077;42.716;23.344;2023-02-21T02:52:07;9.45;;;3.63;;
64667;SDS011;51077;42.716;23.344;2023-02-21T02:54:33;7.57;;;3.38;;
64667;SDS011;51077;42.716;23.344;2023-02-21T02:56:59;7.10;;;3.70;;
64667;SDS011;51077;42.716;23.344;2023-02-21T02:59:28;6.85;;;3.65;;
64667;SDS011;51077;42.716;23.344;2023-02-21T03:07:40;7.38;;;3.90;;
64667;SDS011;51077;42.716;23.344;2023-02-21T03:15:11;7.15;;;3.38;;
64667;SDS011;51077;42.716;23.344;2023-02-21T03:17:42;6.97;;;3.72;;
64667;SDS011;51077;42.716;23.344;2023-02-21T03:20:17;9.73;;;4.03;;
64667;SDS011;51077;42.716;23.344;2023-02-21T03:22:45;9.57;;;4.35;;
64667;SDS011;51077;42.716;23.344;2023-02-21T03:25:12;9.70;;;4.72;;
64667;SDS011;51077;42.716;23.344;2023-02-21T03:27:39;13.25;;;7.65;;
64667;SDS011;51077;42.716;23.344;2023-02-21T03:30:07;11.10;;;5.63;;
64667;SDS011;51077;42.716;23.344;2023-02-21T03:32:37;12.50;;;5.85;;
64667;SDS011;51077;42.716;23.344;2023-02-21T03:35:15;10.25;;;5.68;;
64667;SDS011;51077;42.716;23.344;2023-02-21T03:37:45;10.43;;;5.55;;
64667;SDS011;51077;42.716;23.344;2023-02-21T03:40:16;10.25;;;5.20;;
64667;SDS011;51077;42.716;23.344;2023-02-21T03:42:44;9.23;;;5.57;;
64667;SDS011;51077;42.716;23.344;2023-02-21T03:45:10;11.83;;;5.40;;
64667;SDS011;51077;42.716;23.344;2023-02-21T03:47:35;7.27;;;4.73;;
64667;SDS011;51077;42.716;23.344;2023-02-21T03:50:01;6.93;;;4.50;;
64667;SDS011;51077;42.716;23.344;2023-02-21T03:52:27;10.70;;;4.95;;
64667;SDS011;51077;42.716;23.344;2023-02-21T03:54:52;7.27;;;4.53;;
64667;SDS011;51077;42.716;23.344;2023-02-21T03:57:18;8.80;;;4.53;;
64667;SDS011;51077;42.716;23.344;2023-02-21T03:59:43;8.70;;;5.40;;
64667;SDS011;51077;42.716;23.344;2023-02-21T04:02:10;9.35;;;5.43;;
64667;SDS011;51077;42.716;23.344;2023-02-21T04:04:35;8.57;;;5.57;;
64667;SDS011;51077;42.716;23.344;2023-02-21T04:07:00;8.73;;;4.33;;
64667;SDS011;51077;42.716;23.344;2023-02-21T04:09:26;9.43;;;5.47;;
64667;SDS011;51077;42.716;23.344;2023-02-21T04:11:51;11.90;;;6.07;;
64667;SDS011;51077;42.716;23.344;2023-02-21T04:14:17;9.50;;;5.30;;
64667;SDS011;51077;42.716;23.344;2023-02-21T04:16:42;9.03;;;5.30;;
64667;SDS011;51077;42.716;23.344;2023-02-21T04:19:07;8.87;;;5.03;;
64667;SDS011;51077;42.716;23.344;2023-02-21T04:21:33;9.87;;;5.23;;
64667;SDS011;51077;42.716;23.344;2023-02-21T04:23:58;9.00;;;4.40;;
64667;SDS011;51077;42.716;23.344;2023-02-21T04:26:24;9.73;;;4.50;;
64667;SDS011;51077;42.716;23.344;2023-02-21T04:28:52;9.73;;;4.73;;
64667;SDS011;51077;42.716;23.344;2023-02-21T04:31:18;18.13;;;5.28;;
64667;SDS011;51077;42.716;23.344;2023-02-21T04:33:43;7.87;;;4.47;;
64667;SDS011;51077;42.716;23.344;2023-02-21T04:36:09;15.77;;;4.53;;
64667;SDS011;51077;42.716;23.344;2023-02-21T04:38:34;8.73;;;4.30;;
64667;SDS011;51077;42.716;23.344;2023-02-21T04:41:01;6.72;;;3.75;;
64667;SDS011;51077;42.716;23.344;2023-02-21T04:43:27;9.45;;;3.97;;
64667;SDS011;51077;42.716;23.344;2023-02-21T04:45:53;9.10;;;4.10;;
64667;SDS011;51077;42.716;23.344;2023-02-21T04:48:18;7.30;;;4.13;;
64667;SDS011;51077;42.716;23.344;2023-02-21T04:50:44;8.27;;;3.53;;
64667;SDS011;51077;42.716;23.344;2023-02-21T04:53:10;9.20;;;3.93;;
64667;SDS011;51077;42.716;23.344;2023-02-21T04:55:35;8.13;;;3.70;;
64667;SDS011;51077;42.716;23.344;2023-02-21T04:58:01;6.10;;;3.60;;
64667;SDS011;51077;42.716;23.344;2023-02-21T05:00:26;5.67;;;2.97;;
64667;SDS011;51077;42.716;23.344;2023-02-21T05:02:51;6.73;;;3.20;;
64667;SDS011;51077;42.716;23.344;2023-02-21T05:05:17;5.10;;;2.93;;
64667;SDS011;51077;42.716;23.344;2023-02-21T05:07:42;5.97;;;3.33;;
64667;SDS011;51077;42.716;23.344;2023-02-21T05:10:08;6.67;;;2.87;;
64667;SDS011;51077;42.716;23.344;2023-02-21T05:12:35;5.43;;;3.25;;
64667;SDS011;51077;42.716;23.344;2023-02-21T05:15:03;7.55;;;3.13;;
64667;SDS011;51077;42.716;23.344;2023-02-21T05:17:29;9.65;;;3.60;;
64667;SDS011;51077;42.716;23.344;2023-02-21T05:19:55;7.93;;;3.67;;
64667;SDS011;51077;42.716;23.344;2023-02-21T05:22:20;7.90;;;3.30;;
64667;SDS011;51077;42.716;23.344;2023-02-21T05:24:46;7.80;;;3.42;;
64667;SDS011;51077;42.716;23.344;2023-02-21T05:27:13;7.45;;;3.67;;
64667;SDS011;51077;42.716;23.344;2023-02-21T05:29:40;6.15;;;3.15;;
64667;SDS011;51077;42.716;23.344;2023-02-21T05:32:06;7.97;;;3.67;;
64667;SDS011;51077;42.716;23.344;2023-02-21T05:34:32;6.70;;;3.40;;
64667;SDS011;51077;42.716;23.344;2023-02-21T05:36:57;7.33;;;3.33;;
64667;SDS011;51077;42.716;23.344;2023-02-21T05:39:23;9.80;;;3.93;;
64667;SDS011;51077;42.716;23.344;2023-02-21T05:41:49;12.23;;;5.53;;
64667;SDS011;51077;42.716;23.344;2023-02-21T05:44:14;7.55;;;4.63;;
64667;SDS011;51077;42.716;23.344;2023-02-21T05:46:41;10.70;;;5.68;;
64667;SDS011;51077;42.716;23.344;2023-02-21T05:49:06;11.47;;;5.83;;
64667;SDS011;51077;42.716;23.344;2023-02-21T05:51:40;14.40;;;5.77;;
64667;SDS011;51077;42.716;23.344;2023-02-21T05:54:07;9.93;;;5.43;;
64667;SDS011;51077;42.716;23.344;2023-02-21T05:56:37;9.25;;;5.35;;
64667;SDS011;51077;42.716;23.344;2023-02-21T05:59:04;9.48;;;5.10;;
64667;SDS011;51077;42.716;23.344;2023-02-21T06:01:29;9.65;;;5.22;;
64667;SDS011;51077;42.716;23.344;2023-02-21T06:03:55;10.60;;;5.40;;
64667;SDS011;51077;42.716;23.344;2023-02-21T06:06:20;9.23;;;4.70;;
64667;SDS011;51077;42.716;23.344;2023-02-21T06:08:47;10.00;;;5.37;;
64667;SDS011;51077;42.716;23.344;2023-02-21T06:11:14;11.35;;;5.07;;
64667;SDS011;51077;42.716;23.344;2023-02-21T06:13:45;11.55;;;5.20;;
64667;SDS011;51077;42.716;23.344;2023-02-21T06:16:10;11.27;;;5.20;;
64667;SDS011;51077;42.716;23.344;2023-02-21T06:18:36;10.50;;;5.33;;
64667;SDS011;51077;42.716;23.344;2023-02-21T06:21:01;7.27;;;4.80;;
64667;SDS011;51077;42.716;23.344;2023-02-21T06:23:27;8.97;;;4.50;;
64667;SDS011;51077;42.716;23.344;2023-02-21T06:25:52;8.07;;;4.77;;
64667;SDS011;51077;42.716;23.344;2023-02-21T06:28:17;6.87;;;4.33;;
64667;SDS011;51077;42.716;23.344;2023-02-21T06:30:43;6.87;;;4.70;;
64667;SDS011;51077;42.716;23.344;2023-02-21T06:33:08;8.03;;;4.27;;
64667;SDS011;51077;42.716;23.344;2023-02-21T06:35:33;8.13;;;4.50;;
64667;SDS011;51077;42.716;23.344;2023-02-21T06:37:59;8.37;;;4.60;;
64667;SDS011;51077;42.716;23.344;2023-02-21T06:40:24;7.90;;;4.50;;
64667;SDS011;51077;42.716;23.344;2023-02-21T06:42:49;7.80;;;4.40;;
64667;SDS011;51077;42.716;23.344;2023-02-21T06:45:15;7.53;;;4.07;;
64667;SDS011;51077;42.716;23.344;2023-02-21T06:47:40;6.87;;;4.30;;
64667;SDS011;51077;42.716;23.344;2023-02-21T06:50:06;7.03;;;4.03;;
64667;SDS011;51077;42.716;23.344;2023-02-21T06:52:31;11.87;;;6.00;;
64667;SDS011;51077;42.716;23.344;2023-02-21T06:54:57;9.33;;;4.93;;
64667;SDS011;51077;42.716;23.344;2023-02-21T06:57:22;9.30;;;5.70;;
64667;SDS011;51077;42.716;23.344;2023-02-21T06:59:50;8.77;;;5.20;;
64667;SDS011;51077;42.716;23.344;2023-02-21T07:02:17;8.73;;;5.03;;
64667;SDS011;51077;42.716;23.344;2023-02-21T07:04:46;11.10;;;5.93;;
64667;SDS011;51077;42.716;23.344;2023-02-21T07:07:12;10.73;;;6.63;;
64667;SDS011;51077;42.716;23.344;2023-02-21T07:09:38;12.57;;;6.63;;
64667;SDS011;51077;42.716;23.344;2023-02-21T07:12:03;11.17;;;5.90;;
64667;SDS011;51077;42.716;23.344;2023-02-21T07:14:29;10.77;;;6.10;;
64667;SDS011;51077;42.716;23.344;2023-02-21T07:16:54;10.10;;;6.17;;
64667;SDS011;51077;42.716;23.344;2023-02-21T07:19:20;12.60;;;5.53;;
64667;SDS011;51077;42.716;23.344;2023-02-21T07:21:45;10.80;;;6.33;;
64667;SDS011;51077;42.716;23.344;2023-02-21T07:24:11;10.27;;;5.77;;
64667;SDS011;51077;42.716;23.344;2023-02-21T07:26:36;7.63;;;5.30;;
64667;SDS011;51077;42.716;23.344;2023-02-21T07:29:02;8.45;;;5.85;;
64667;SDS011;51077;42.716;23.344;2023-02-21T07:31:28;11.13;;;5.80;;
64667;SDS011;51077;42.716;23.344;2023-02-21T07:33:54;10.33;;;5.20;;
64667;SDS011;51077;42.716;23.344;2023-02-21T07:36:19;8.80;;;4.53;;
64667;SDS011;51077;42.716;23.344;2023-02-21T07:38:45;12.60;;;5.90;;
64667;SDS011;51077;42.716;23.344;2023-02-21T07:41:10;10.37;;;5.80;;
64667;SDS011;51077;42.716;23.344;2023-02-21T07:43:37;8.15;;;5.53;;
64667;SDS011;51077;42.716;23.344;2023-02-21T07:46:03;10.33;;;5.37;;
64667;SDS011;51077;42.716;23.344;2023-02-21T07:48:28;7.30;;;4.90;;
64667;SDS011;51077;42.716;23.344;2023-02-21T07:50:54;10.13;;;5.50;;
64667;SDS011;51077;42.716;23.344;2023-02-21T07:53:19;9.67;;;5.10;;
64667;SDS011;51077;42.716;23.344;2023-02-21T07:55:45;8.63;;;4.93;;
64667;SDS011;51077;42.716;23.344;2023-02-21T07:58:10;8.60;;;5.20;;
64667;SDS011;51077;42.716;23.344;2023-02-21T08:00:36;9.23;;;5.00;;
64667;SDS011;51077;42.716;23.344;2023-02-21T08:03:01;9.33;;;5.33;;
64667;SDS011;51077;42.716;23.344;2023-02-21T08:05:26;9.57;;;4.83;;
64667;SDS011;51077;42.716;23.344;2023-02-21T08:07:52;10.53;;;4.90;;
64667;SDS011;51077;42.716;23.344;2023-02-21T08:10:22;10.50;;;5.67;;
64667;SDS011;51077;42.716;23.344;2023-02-21T08:12:49;9.77;;;5.00;;
64667;SDS011;51077;42.716;23.344;2023-02-21T08:15:15;8.33;;;4.27;;
64667;SDS011;51077;42.716;23.344;2023-02-21T08:17:41;11.90;;;4.80;;
64667;SDS011;51077;42.716;23.344;2023-02-21T08:20:06;7.07;;;4.37;;
64667;SDS011;51077;42.716;23.344;2023-02-21T08:22:32;8.75;;;4.50;;
64667;SDS011;51077;42.716;23.344;2023-02-21T08:24:57;11.40;;;4.67;;
64667;SDS011;51077;42.716;23.344;2023-02-21T08:27:23;10.53;;;4.80;;
64667;SDS011;51077;42.716;23.344;2023-02-21T08:29:49;8.93;;;4.53;;
64667;SDS011;51077;42.716;23.344;2023-02-21T08:32:15;6.78;;;4.20;;
64667;SDS011;51077;42.716;23.344;2023-02-21T08:34:43;10.30;;;5.03;;
64667;SDS011;51077;42.716;23.344;2023-02-21T08:37:09;10.85;;;4.97;;
64667;SDS011;51077;42.716;23.344;2023-02-21T08:39:43;10.00;;;4.85;;
64667;SDS011;51077;42.716;23.344;2023-02-21T08:42:10;10.75;;;4.90;;
64667;SDS011;51077;42.716;23.344;2023-02-21T08:44:36;11.05;;;5.00;;
64667;SDS011;51077;42.716;23.344;2023-02-21T08:47:01;11.37;;;5.60;;
64667;SDS011;51077;42.716;23.344;2023-02-21T08:49:26;15.73;;;5.80;;
64667;SDS011;51077;42.716;23.344;2023-02-21T08:51:52;10.87;;;4.60;;
64667;SDS011;51077;42.716;23.344;2023-02-21T08:54:19;9.38;;;5.15;;
64667;SDS011;51077;42.716;23.344;2023-02-21T08:56:44;8.87;;;4.97;;
64667;SDS011;51077;42.716;23.344;2023-02-21T08:59:09;11.57;;;4.63;;
64667;SDS011;51077;42.716;23.344;2023-02-21T09:01:35;9.90;;;4.70;;
64667;SDS011;51077;42.716;23.344;2023-02-21T09:04:01;11.87;;;5.10;;
64667;SDS011;51077;42.716;23.344;2023-02-21T09:06:27;10.00;;;5.13;;
64667;SDS011;51077;42.716;23.344;2023-02-21T09:08:53;10.07;;;5.10;;
64667;SDS011;51077;42.716;23.344;2023-02-21T09:11:19;10.23;;;5.10;;
64667;SDS011;51077;42.716;23.344;2023-02-21T09:13:44;13.10;;;5.33;;
64667;SDS011;51077;42.716;23.344;2023-02-21T09:16:09;11.13;;;4.60;;
64667;SDS011;51077;42.716;23.344;2023-02-21T09:18:35;14.97;;;5.37;;
64667;SDS011;51077;42.716;23.344;2023-02-21T09:21:00;10.40;;;4.70;;
64667;SDS011;51077;42.716;23.344;2023-02-21T09:23:27;8.03;;;4.37;;
64667;SDS011;51077;42.716;23.344;2023-02-21T09:25:54;16.77;;;5.40;;
64667;SDS011;51077;42.716;23.344;2023-02-21T09:28:19;10.57;;;5.00;;
64667;SDS011;51077;42.716;23.344;2023-02-21T09:30:45;8.70;;;4.72;;
64667;SDS011;51077;42.716;23.344;2023-02-21T09:33:11;9.65;;;5.35;;
64667;SDS011;51077;42.716;23.344;2023-02-21T09:35:37;9.80;;;5.53;;
64667;SDS011;51077;42.716;23.344;2023-02-21T09:38:03;10.47;;;5.17;;
64667;SDS011;51077;42.716;23.344;2023-02-21T09:43:04;10.40;;;5.22;;
64667;SDS011;51077;42.716;23.344;2023-02-21T09:45:53;8.23;;;4.00;;
64667;SDS011;51077;42.716;23.344;2023-02-21T09:48:21;10.63;;;4.18;;
64667;SDS011;51077;42.716;23.344;2023-02-21T09:50:49;9.73;;;5.25;;
64667;SDS011;51077;42.716;23.344;2023-02-21T09:53:19;9.38;;;5.05;;
64667;SDS011;51077;42.716;23.344;2023-02-21T09:55:49;8.55;;;4.78;;
64667;SDS011;51077;42.716;23.344;2023-02-21T09:58:18;9.38;;;4.45;;
64667;SDS011;51077;42.716;23.344;2023-02-21T10:00:45;9.00;;;4.70;;
64667;SDS011;51077;42.716;23.344;2023-02-21T10:17:11;8.18;;;4.00;;
64667;SDS011;51077;42.716;23.344;2023-02-21T10:19:43;6.43;;;4.15;;
64667;SDS011;51077;42.716;23.344;2023-02-21T10:22:13;8.63;;;3.88;;
64667;SDS011;51077;42.716;23.344;2023-02-21T10:24:43;5.57;;;3.15;;
64667;SDS011;51077;42.716;23.344;2023-02-21T10:27:14;7.97;;;3.73;;
64667;SDS011;51077;42.716;23.344;2023-02-21T10:32:16;7.63;;;4.05;;
64667;SDS011;51077;42.716;23.344;2023-02-21T10:34:42;6.97;;;3.60;;
64667;SDS011;51077;42.716;23.344;2023-02-21T10:40:00;5.17;;;3.00;;
64667;SDS011;51077;42.716;23.344;2023-02-21T10:42:33;6.90;;;3.07;;
64667;SDS011;51077;42.716;23.344;2023-02-21T10:45:03;6.50;;;3.03;;
64667;SDS011;51077;42.716;23.344;2023-02-21T10:50:10;3.90;;;2.30;;
64667;SDS011;51077;42.716;23.344;2023-02-21T10:52:49;5.63;;;2.83;;
64667;SDS011;51077;42.716;23.344;2023-02-21T10:55:20;8.10;;;2.30;;
64667;SDS011;51077;42.716;23.344;2023-02-21T10:57:53;4.43;;;2.27;;
64667;SDS011;51077;42.716;23.344;2023-02-21T11:02:55;4.47;;;1.93;;
64667;SDS011;51077;42.716;23.344;2023-02-21T11:05:26;3.33;;;2.00;;
64667;SDS011;51077;42.716;23.344;2023-02-21T11:08:02;3.23;;;1.73;;
64667;SDS011;51077;42.716;23.344;2023-02-21T11:15:27;2.70;;;1.60;;
64667;SDS011;51077;42.716;23.344;2023-02-21T11:18:10;5.87;;;2.43;;
64667;SDS011;51077;42.716;23.344;2023-02-21T11:20:36;3.80;;;2.10;;
64667;SDS011;51077;42.716;23.344;2023-02-21T11:23:02;3.90;;;1.70;;
64667;SDS011;51077;42.716;23.344;2023-02-21T11:25:31;4.40;;;2.00;;
64667;SDS011;51077;42.716;23.344;2023-02-21T11:30:38;3.37;;;1.67;;
64667;SDS011;51077;42.716;23.344;2023-02-21T11:33:09;5.05;;;1.83;;
64667;SDS011;51077;42.716;23.344;2023-02-21T11:35:42;2.93;;;1.67;;
64667;SDS011;51077;42.716;23.344;2023-02-21T11:38:28;4.27;;;1.70;;
64667;SDS011;51077;42.716;23.344;2023-02-21T11:40:54;3.80;;;1.90;;
64667;SDS011;51077;42.716;23.344;2023-02-21T11:43:21;2.37;;;1.30;;
64667;SDS011;51077;42.716;23.344;2023-02-21T11:45:55;34.90;;;14.87;;
64667;SDS011;51077;42.716;23.344;2023-02-21T11:49:00;10.20;;;5.13;;
64667;SDS011;51077;42.716;23.344;2023-02-21T11:54:13;9.40;;;4.47;;
64667;SDS011;51077;42.716;23.344;2023-02-21T12:04:35;8.50;;;3.93;;
64667;SDS011;51077;42.716;23.344;2023-02-21T12:12:42;7.07;;;3.30;;
64667;SDS011;51077;42.716;23.344;2023-02-21T12:24:13;6.47;;;2.27;;
64667;SDS011;51077;42.716;23.344;2023-02-21T12:27:02;4.60;;;2.20;;
64667;SDS011;51077;42.716;23.344;2023-02-21T12:37:44;5.07;;;1.90;;
64667;SDS011;51077;42.716;23.344;2023-02-21T12:45:49;4.53;;;1.93;;
64667;SDS011;51077;42.716;23.344;2023-02-21T12:50:55;3.60;;;2.00;;
64667;SDS011;51077;42.716;23.344;2023-02-21T12:56:40;4.70;;;1.93;;
64667;SDS011;51077;42.716;23.344;2023-02-21T12:59:19;3.83;;;2.00;;
64667;SDS011;51077;42.716;23.344;2023-02-21T13:01:52;3.93;;;1.90;;
64667;SDS011;51077;42.716;23.344;2023-02-21T13:07:51;3.60;;;1.77;;
64667;SDS011;51077;42.716;23.344;2023-02-21T13:10:23;3.63;;;1.70;;
64667;SDS011;51077;42.716;23.344;2023-02-21T13:13:12;5.10;;;1.87;;
64667;SDS011;51077;42.716;23.344;2023-02-21T13:15:43;3.53;;;1.73;;
64667;SDS011;51077;42.716;23.344;2023-02-21T13:18:18;3.97;;;1.40;;
64667;SDS011;51077;42.716;23.344;2023-02-21T13:20:56;3.07;;;1.70;;
64667;SDS011;51077;42.716;23.344;2023-02-21T13:26:41;2.30;;;1.00;;
64667;SDS011;51077;42.716;23.344;2023-02-21T13:29:22;3.63;;;1.40;;
64667;SDS011;51077;42.716;23.344;2023-02-21T13:31:54;2.50;;;1.17;;
64667;SDS011;51077;42.716;23.344;2023-02-21T13:34:24;2.33;;;1.30;;
64667;SDS011;51077;42.716;23.344;2023-02-21T13:36:53;3.37;;;2.03;;
64667;SDS011;51077;42.716;23.344;2023-02-21T13:39:27;3.20;;;1.50;;
64667;SDS011;51077;42.716;23.344;2023-02-21T13:42:07;3.37;;;1.30;;
64667;SDS011;51077;42.716;23.344;2023-02-21T13:44:45;2.30;;;1.50;;
64667;SDS011;51077;42.716;23.344;2023-02-21T13:47:14;3.43;;;1.50;;
64667;SDS011;51077;42.716;23.344;2023-02-21T14:13:41;3.33;;;1.63;;
64667;SDS011;51077;42.716;23.344;2023-02-21T14:21:03;4.30;;;1.40;;
64667;SDS011;51077;42.716;23.344;2023-02-21T14:23:39;5.37;;;1.90;;
64667;SDS011;51077;42.716;23.344;2023-02-21T14:26:05;2.87;;;1.53;;
64667;SDS011;51077;42.716;23.344;2023-02-21T14:34:39;11.40;;;1.97;;
64667;SDS011;51077;42.716;23.344;2023-02-21T14:55:27;4.53;;;1.92;;
64667;SDS011;51077;42.716;23.344;2023-02-21T15:00:52;3.97;;;2.00;;
64667;SDS011;51077;42.716;23.344;2023-02-21T15:03:24;3.55;;;1.67;;
64667;SDS011;51077;42.716;23.344;2023-02-21T15:06:00;4.85;;;2.28;;
64667;SDS011;51077;42.716;23.344;2023-02-21T15:08:38;3.58;;;1.63;;
64667;SDS011;51077;42.716;23.344;2023-02-21T15:11:12;3.85;;;1.70;;
64667;SDS011;51077;42.716;23.344;2023-02-21T15:13:42;3.72;;;1.88;;
64667;SDS011;51077;42.716;23.344;2023-02-21T15:16:08;4.60;;;1.80;;
64667;SDS011;51077;42.716;23.344;2023-02-21T15:18:36;5.10;;;2.20;;
64667;SDS011;51077;42.716;23.344;2023-02-21T15:23:34;3.88;;;1.90;;
64667;SDS011;51077;42.716;23.344;2023-02-21T15:26:20;5.18;;;2.08;;
64667;SDS011;51077;42.716;23.344;2023-02-21T15:31:38;4.27;;;1.67;;
64667;SDS011;51077;42.716;23.344;2023-02-21T15:34:21;4.13;;;2.15;;
64667;SDS011;51077;42.716;23.344;2023-02-21T15:37:01;4.65;;;1.83;;
64667;SDS011;51077;42.716;23.344;2023-02-21T15:39:33;6.50;;;2.00;;
64667;SDS011;51077;42.716;23.344;2023-02-21T15:42:01;5.00;;;2.13;;
64667;SDS011;51077;42.716;23.344;2023-02-21T15:44:31;6.57;;;2.13;;
64667;SDS011;51077;42.716;23.344;2023-02-21T15:47:08;4.22;;;2.05;;
64667;SDS011;51077;42.716;23.344;2023-02-21T15:52:35;5.57;;;2.60;;
64667;SDS011;51077;42.716;23.344;2023-02-21T16:00:36;5.18;;;2.92;;
64667;SDS011;51077;42.716;23.344;2023-02-21T16:03:34;5.88;;;3.10;;
64667;SDS011;51077;42.716;23.344;2023-02-21T16:08:36;7.28;;;3.78;;
64667;SDS011;51077;42.716;23.344;2023-02-21T16:11:04;7.72;;;4.03;;
64667;SDS011;51077;42.716;23.344;2023-02-21T16:13:34;6.93;;;3.30;;
64667;SDS011;51077;42.716;23.344;2023-02-21T16:16:01;6.78;;;3.70;;
64667;SDS011;51077;42.716;23.344;2023-02-21T16:18:27;7.33;;;3.83;;
64667;SDS011;51077;42.716;23.344;2023-02-21T16:20:59;7.57;;;3.63;;
64667;SDS011;51077;42.716;23.344;2023-02-21T16:23:31;10.27;;;3.88;;
64667;SDS011;51077;42.716;23.344;2023-02-21T16:28:38;5.95;;;3.50;;
64667;SDS011;51077;42.716;23.344;2023-02-21T16:31:09;8.18;;;4.57;;
64667;SDS011;51077;42.716;23.344;2023-02-21T16:33:48;8.13;;;3.83;;
64667;SDS011;51077;42.716;23.344;2023-02-21T16:36:19;8.20;;;4.00;;
64667;SDS011;51077;42.716;23.344;2023-02-21T16:38:48;8.27;;;4.35;;
64667;SDS011;51077;42.716;23.344;2023-02-21T16:41:14;9.90;;;4.37;;
64667;SDS011;51077;42.716;23.344;2023-02-21T16:43:40;9.13;;;4.85;;
64667;SDS011;51077;42.716;23.344;2023-02-21T16:46:05;7.57;;;4.60;;
64667;SDS011;51077;42.716;23.344;2023-02-21T16:48:31;42.67;;;20.20;;
64667;SDS011;51077;42.716;23.344;2023-02-21T16:50:57;15.87;;;8.03;;
64667;SDS011;51077;42.716;23.344;2023-02-21T16:53:29;14.48;;;8.00;;
64667;SDS011;51077;42.716;23.344;2023-02-21T16:55:55;15.52;;;8.57;;
64667;SDS011;51077;42.716;23.344;2023-02-21T16:58:30;19.08;;;8.50;;
64667;SDS011;51077;42.716;23.344;2023-02-21T17:01:02;15.20;;;7.57;;
64667;SDS011;51077;42.716;23.344;2023-02-21T17:03:32;14.25;;;7.93;;
64667;SDS011;51077;42.716;23.344;2023-02-21T17:05:57;16.23;;;7.83;;
64667;SDS011;51077;42.716;23.344;2023-02-21T17:08:24;13.35;;;6.95;;
64667;SDS011;51077;42.716;23.344;2023-02-21T17:10:51;13.05;;;7.07;;
64667;SDS011;51077;42.716;23.344;2023-02-21T17:13:17;14.60;;;7.13;;
64667;SDS011;51077;42.716;23.344;2023-02-21T17:15:42;11.60;;;6.40;;
64667;SDS011;51077;42.716;23.344;2023-02-21T17:18:11;14.67;;;7.27;;
64667;SDS011;51077;42.716;23.344;2023-02-21T17:20:38;14.98;;;7.13;;
64667;SDS011;51077;42.716;23.344;2023-02-21T17:23:04;15.00;;;7.82;;
64667;SDS011;51077;42.716;23.344;2023-02-21T17:25:30;12.30;;;6.60;;
64667;SDS011;51077;42.716;23.344;2023-02-21T17:27:58;13.15;;;6.80;;
64667;SDS011;51077;42.716;23.344;2023-02-21T17:30:24;15.50;;;6.50;;
64667;SDS011;51077;42.716;23.344;2023-02-21T17:32:50;12.80;;;6.77;;
64667;SDS011;51077;42.716;23.344;2023-02-21T17:35:16;12.75;;;7.07;;
64667;SDS011;51077;42.716;23.344;2023-02-21T17:37:43;17.83;;;9.68;;
64667;SDS011;51077;42.716;23.344;2023-02-21T17:40:12;15.60;;;8.38;;
64667;SDS011;51077;42.716;23.344;2023-02-21T17:42:38;15.23;;;7.30;;
64667;SDS011;51077;42.716;23.344;2023-02-21T17:45:04;16.40;;;7.97;;
64667;SDS011;51077;42.716;23.344;2023-02-21T17:47:30;17.98;;;9.38;;
64667;SDS011;51077;42.716;23.344;2023-02-21T17:49:56;14.77;;;8.07;;
64667;SDS011;51077;42.716;23.344;2023-02-21T17:52:24;18.80;;;9.32;;
64667;SDS011;51077;42.716;23.344;2023-02-21T17:54:50;21.50;;;11.93;;
64667;SDS011;51077;42.716;23.344;2023-02-21T17:57:15;22.13;;;12.50;;
64667;SDS011;51077;42.716;23.344;2023-02-21T17:59:41;22.20;;;12.97;;
64667;SDS011;51077;42.716;23.344;2023-02-21T18:02:07;22.50;;;11.30;;
64667;SDS011;51077;42.716;23.344;2023-02-21T18:04:32;22.43;;;12.00;;
64667;SDS011;51077;42.716;23.344;2023-02-21T18:06:58;22.27;;;13.40;;